sensor_id;sensor_type;location;lat;lon;timestamp;P1;durP1;ratioP1;P2;durP2;ratioP2
34657;SDS011;20865;43.312;27.152;2022-12-18T00:01:24;5.12;;;2.20;;
34657;SDS011;20865;43.312;27.152;2022-12-18T00:03:57;5.28;;;2.30;;
34657;SDS011;20865;43.312;27.152;2022-12-18T00:06:26;4.95;;;2.27;;
34657;SDS011;20865;43.312;27.152;2022-12-18T00:08:56;4.75;;;2.15;;
34657;SDS011;20865;43.312;27.152;2022-12-18T00:11:25;7.90;;;2.30;;
34657;SDS011;20865;43.312;27.152;2022-12-18T00:13:55;3.35;;;2.30;;
34657;SDS011;20865;43.312;27.152;2022-12-18T00:16:25;3.37;;;2.00;;
34657;SDS011;20865;43.312;27.152;2022-12-18T00:18:55;4.15;;;2.33;;
34657;SDS011;20865;43.312;27.152;2022-12-18T00:21:23;3.15;;;1.87;;
34657;SDS011;20865;43.312;27.152;2022-12-18T00:23:51;4.50;;;2.35;;
34657;SDS011;20865;43.312;27.152;2022-12-18T00:26:23;5.70;;;1.95;;
34657;SDS011;20865;43.312;27.152;2022-12-18T00:28:52;2.47;;;1.57;;
34657;SDS011;20865;43.312;27.152;2022-12-18T00:31:22;5.22;;;2.40;;
34657;SDS011;20865;43.312;27.152;2022-12-18T00:33:51;3.37;;;1.77;;
34657;SDS011;20865;43.312;27.152;2022-12-18T00:36:22;7.22;;;2.30;;
34657;SDS011;20865;43.312;27.152;2022-12-18T00:38:53;3.58;;;2.25;;
34657;SDS011;20865;43.312;27.152;2022-12-18T00:41:22;3.12;;;1.95;;
34657;SDS011;20865;43.312;27.152;2022-12-18T00:44:09;4.10;;;2.12;;
34657;SDS011;20865;43.312;27.152;2022-12-18T00:46:39;3.20;;;1.95;;
34657;SDS011;20865;43.312;27.152;2022-12-18T00:49:07;5.83;;;1.90;;
34657;SDS011;20865;43.312;27.152;2022-12-18T00:51:36;3.75;;;1.90;;
34657;SDS011;20865;43.312;27.152;2022-12-18T00:54:03;4.00;;;2.37;;
34657;SDS011;20865;43.312;27.152;2022-12-18T00:56:31;3.65;;;2.17;;
34657;SDS011;20865;43.312;27.152;2022-12-18T00:58:59;2.98;;;2.10;;
34657;SDS011;20865;43.312;27.152;2022-12-18T01:01:26;3.95;;;2.42;;
34657;SDS011;20865;43.312;27.152;2022-12-18T01:03:54;4.67;;;2.17;;
34657;SDS011;20865;43.312;27.152;2022-12-18T01:06:22;3.20;;;2.08;;
34657;SDS011;20865;43.312;27.152;2022-12-18T01:08:50;5.25;;;2.83;;
34657;SDS011;20865;43.312;27.152;2022-12-18T01:11:18;4.58;;;2.27;;
34657;SDS011;20865;43.312;27.152;2022-12-18T01:13:46;4.47;;;2.50;;
34657;SDS011;20865;43.312;27.152;2022-12-18T01:16:14;3.77;;;2.35;;
34657;SDS011;20865;43.312;27.152;2022-12-18T01:18:43;3.95;;;2.52;;
34657;SDS011;20865;43.312;27.152;2022-12-18T01:21:12;4.75;;;2.62;;
34657;SDS011;20865;43.312;27.152;2022-12-18T01:23:41;5.33;;;2.62;;
34657;SDS011;20865;43.312;27.152;2022-12-18T01:26:13;4.67;;;2.20;;
34657;SDS011;20865;43.312;27.152;2022-12-18T01:28:42;4.28;;;2.58;;
34657;SDS011;20865;43.312;27.152;2022-12-18T01:31:11;5.70;;;2.55;;
34657;SDS011;20865;43.312;27.152;2022-12-18T01:33:40;5.65;;;2.67;;
34657;SDS011;20865;43.312;27.152;2022-12-18T01:36:08;4.00;;;2.60;;
34657;SDS011;20865;43.312;27.152;2022-12-18T01:38:51;4.58;;;2.45;;
34657;SDS011;20865;43.312;27.152;2022-12-18T01:41:20;8.30;;;2.80;;
34657;SDS011;20865;43.312;27.152;2022-12-18T01:43:55;4.75;;;2.37;;
34657;SDS011;20865;43.312;27.152;2022-12-18T01:46:25;4.58;;;2.75;;
34657;SDS011;20865;43.312;27.152;2022-12-18T01:48:55;5.33;;;2.20;;
34657;SDS011;20865;43.312;27.152;2022-12-18T01:51:24;3.42;;;2.27;;
34657;SDS011;20865;43.312;27.152;2022-12-18T01:53:54;4.58;;;2.70;;
34657;SDS011;20865;43.312;27.152;2022-12-18T01:56:23;3.98;;;2.37;;
34657;SDS011;20865;43.312;27.152;2022-12-18T01:58:55;3.75;;;2.27;;
34657;SDS011;20865;43.312;27.152;2022-12-18T02:01:24;4.05;;;1.90;;
34657;SDS011;20865;43.312;27.152;2022-12-18T02:03:52;4.22;;;2.02;;
34657;SDS011;20865;43.312;27.152;2022-12-18T02:06:21;4.35;;;2.22;;
34657;SDS011;20865;43.312;27.152;2022-12-18T02:08:54;4.50;;;2.55;;
34657;SDS011;20865;43.312;27.152;2022-12-18T02:11:37;5.10;;;2.62;;
34657;SDS011;20865;43.312;27.152;2022-12-18T02:16:43;4.35;;;2.15;;
34657;SDS011;20865;43.312;27.152;2022-12-18T02:24:35;4.90;;;2.40;;
34657;SDS011;20865;43.312;27.152;2022-12-18T02:27:03;5.20;;;2.42;;
34657;SDS011;20865;43.312;27.152;2022-12-18T02:29:38;5.95;;;3.00;;
34657;SDS011;20865;43.312;27.152;2022-12-18T02:32:08;5.10;;;2.67;;
34657;SDS011;20865;43.312;27.152;2022-12-18T02:34:37;4.90;;;2.70;;
34657;SDS011;20865;43.312;27.152;2022-12-18T02:37:07;6.17;;;3.05;;
34657;SDS011;20865;43.312;27.152;2022-12-18T02:39:37;5.45;;;2.75;;
34657;SDS011;20865;43.312;27.152;2022-12-18T02:42:07;7.20;;;3.08;;
34657;SDS011;20865;43.312;27.152;2022-12-18T02:44:41;6.15;;;2.92;;
34657;SDS011;20865;43.312;27.152;2022-12-18T02:47:11;5.40;;;2.52;;
34657;SDS011;20865;43.312;27.152;2022-12-18T02:49:59;6.28;;;2.65;;
34657;SDS011;20865;43.312;27.152;2022-12-18T02:52:31;5.95;;;2.80;;
34657;SDS011;20865;43.312;27.152;2022-12-18T02:58:01;7.87;;;3.83;;
34657;SDS011;20865;43.312;27.152;2022-12-18T03:00:42;9.23;;;3.35;;
34657;SDS011;20865;43.312;27.152;2022-12-18T03:03:14;5.80;;;3.30;;
34657;SDS011;20865;43.312;27.152;2022-12-18T03:08:26;8.58;;;3.98;;
34657;SDS011;20865;43.312;27.152;2022-12-18T03:10:59;9.20;;;3.98;;
34657;SDS011;20865;43.312;27.152;2022-12-18T03:16:21;7.10;;;3.50;;
34657;SDS011;20865;43.312;27.152;2022-12-18T03:18:51;7.47;;;3.65;;
34657;SDS011;20865;43.312;27.152;2022-12-18T03:21:21;6.72;;;3.58;;
34657;SDS011;20865;43.312;27.152;2022-12-18T03:23:51;6.72;;;3.55;;
34657;SDS011;20865;43.312;27.152;2022-12-18T03:26:22;11.40;;;4.65;;
34657;SDS011;20865;43.312;27.152;2022-12-18T03:28:52;10.95;;;3.92;;
34657;SDS011;20865;43.312;27.152;2022-12-18T03:31:23;7.78;;;3.70;;
34657;SDS011;20865;43.312;27.152;2022-12-18T03:33:54;10.65;;;3.83;;
34657;SDS011;20865;43.312;27.152;2022-12-18T03:36:22;9.78;;;4.08;;
34657;SDS011;20865;43.312;27.152;2022-12-18T03:38:51;9.55;;;4.47;;
34657;SDS011;20865;43.312;27.152;2022-12-18T03:46:52;7.72;;;4.05;;
34657;SDS011;20865;43.312;27.152;2022-12-18T03:52:03;12.75;;;4.85;;
34657;SDS011;20865;43.312;27.152;2022-12-18T03:54:32;10.93;;;5.00;;
34657;SDS011;20865;43.312;27.152;2022-12-18T03:57:06;11.35;;;4.80;;
34657;SDS011;20865;43.312;27.152;2022-12-18T03:59:35;12.93;;;5.10;;
34657;SDS011;20865;43.312;27.152;2022-12-18T04:02:05;10.50;;;4.67;;
34657;SDS011;20865;43.312;27.152;2022-12-18T04:04:35;11.68;;;4.90;;
34657;SDS011;20865;43.312;27.152;2022-12-18T04:07:05;9.70;;;5.12;;
34657;SDS011;20865;43.312;27.152;2022-12-18T04:09:34;9.85;;;4.47;;
34657;SDS011;20865;43.312;27.152;2022-12-18T04:12:05;13.80;;;4.72;;
34657;SDS011;20865;43.312;27.152;2022-12-18T04:14:33;13.25;;;4.97;;
34657;SDS011;20865;43.312;27.152;2022-12-18T04:17:01;13.83;;;5.80;;
34657;SDS011;20865;43.312;27.152;2022-12-18T04:19:29;11.80;;;4.97;;
34657;SDS011;20865;43.312;27.152;2022-12-18T04:21:57;13.08;;;5.08;;
34657;SDS011;20865;43.312;27.152;2022-12-18T04:24:24;10.55;;;5.20;;
34657;SDS011;20865;43.312;27.152;2022-12-18T04:26:52;10.20;;;4.90;;
34657;SDS011;20865;43.312;27.152;2022-12-18T04:29:20;14.45;;;5.83;;
34657;SDS011;20865;43.312;27.152;2022-12-18T04:31:47;14.07;;;5.92;;
34657;SDS011;20865;43.312;27.152;2022-12-18T04:34:15;12.50;;;5.40;;
34657;SDS011;20865;43.312;27.152;2022-12-18T04:36:43;13.03;;;5.22;;
34657;SDS011;20865;43.312;27.152;2022-12-18T04:39:10;13.70;;;5.50;;
34657;SDS011;20865;43.312;27.152;2022-12-18T04:41:38;12.70;;;5.35;;
34657;SDS011;20865;43.312;27.152;2022-12-18T04:44:06;10.95;;;5.05;;
34657;SDS011;20865;43.312;27.152;2022-12-18T04:46:34;12.90;;;4.90;;
34657;SDS011;20865;43.312;27.152;2022-12-18T04:49:02;13.95;;;5.22;;
34657;SDS011;20865;43.312;27.152;2022-12-18T04:51:30;13.30;;;5.47;;
34657;SDS011;20865;43.312;27.152;2022-12-18T04:53:57;11.97;;;5.55;;
34657;SDS011;20865;43.312;27.152;2022-12-18T04:56:25;12.07;;;5.47;;
34657;SDS011;20865;43.312;27.152;2022-12-18T04:58:53;14.78;;;4.78;;
34657;SDS011;20865;43.312;27.152;2022-12-18T05:01:20;13.43;;;5.28;;
34657;SDS011;20865;43.312;27.152;2022-12-18T05:03:48;11.22;;;4.85;;
34657;SDS011;20865;43.312;27.152;2022-12-18T05:06:17;14.43;;;5.58;;
34657;SDS011;20865;43.312;27.152;2022-12-18T05:08:45;13.65;;;5.78;;
34657;SDS011;20865;43.312;27.152;2022-12-18T05:11:13;13.00;;;5.42;;
34657;SDS011;20865;43.312;27.152;2022-12-18T05:13:44;17.25;;;6.53;;
34657;SDS011;20865;43.312;27.152;2022-12-18T05:16:12;15.25;;;7.25;;
34657;SDS011;20865;43.312;27.152;2022-12-18T05:18:40;17.05;;;6.30;;
34657;SDS011;20865;43.312;27.152;2022-12-18T05:21:08;15.13;;;5.92;;
34657;SDS011;20865;43.312;27.152;2022-12-18T05:23:36;13.00;;;6.58;;
34657;SDS011;20865;43.312;27.152;2022-12-18T05:26:05;15.85;;;6.37;;
34657;SDS011;20865;43.312;27.152;2022-12-18T05:28:33;13.30;;;5.78;;
34657;SDS011;20865;43.312;27.152;2022-12-18T05:31:02;16.57;;;6.58;;
34657;SDS011;20865;43.312;27.152;2022-12-18T05:33:31;19.75;;;7.00;;
34657;SDS011;20865;43.312;27.152;2022-12-18T05:36:01;17.52;;;6.60;;
34657;SDS011;20865;43.312;27.152;2022-12-18T05:38:30;17.27;;;6.65;;
34657;SDS011;20865;43.312;27.152;2022-12-18T05:40:59;17.45;;;6.70;;
34657;SDS011;20865;43.312;27.152;2022-12-18T05:43:26;18.30;;;6.90;;
34657;SDS011;20865;43.312;27.152;2022-12-18T05:45:54;18.00;;;7.00;;
34657;SDS011;20865;43.312;27.152;2022-12-18T05:48:23;16.30;;;6.75;;
34657;SDS011;20865;43.312;27.152;2022-12-18T05:50:50;13.72;;;5.97;;
34657;SDS011;20865;43.312;27.152;2022-12-18T05:53:19;15.68;;;5.83;;
34657;SDS011;20865;43.312;27.152;2022-12-18T05:55:47;15.20;;;6.83;;
34657;SDS011;20865;43.312;27.152;2022-12-18T05:58:15;14.93;;;6.60;;
34657;SDS011;20865;43.312;27.152;2022-12-18T06:00:44;15.40;;;5.85;;
34657;SDS011;20865;43.312;27.152;2022-12-18T06:03:12;14.10;;;6.08;;
34657;SDS011;20865;43.312;27.152;2022-12-18T06:05:41;16.05;;;6.90;;
34657;SDS011;20865;43.312;27.152;2022-12-18T06:08:11;17.25;;;6.35;;
34657;SDS011;20865;43.312;27.152;2022-12-18T06:10:39;20.48;;;7.25;;
34657;SDS011;20865;43.312;27.152;2022-12-18T06:13:07;18.10;;;7.53;;
34657;SDS011;20865;43.312;27.152;2022-12-18T06:15:37;16.23;;;7.17;;
34657;SDS011;20865;43.312;27.152;2022-12-18T06:18:05;16.67;;;7.12;;
34657;SDS011;20865;43.312;27.152;2022-12-18T06:20:33;22.42;;;8.48;;
34657;SDS011;20865;43.312;27.152;2022-12-18T06:23:02;14.73;;;6.75;;
34657;SDS011;20865;43.312;27.152;2022-12-18T06:25:30;19.62;;;7.97;;
34657;SDS011;20865;43.312;27.152;2022-12-18T06:27:57;22.65;;;8.63;;
34657;SDS011;20865;43.312;27.152;2022-12-18T06:30:25;21.57;;;8.18;;
34657;SDS011;20865;43.312;27.152;2022-12-18T06:32:53;19.32;;;7.60;;
34657;SDS011;20865;43.312;27.152;2022-12-18T06:35:20;25.95;;;9.85;;
34657;SDS011;20865;43.312;27.152;2022-12-18T06:37:48;24.25;;;8.23;;
34657;SDS011;20865;43.312;27.152;2022-12-18T06:40:16;20.85;;;8.03;;
34657;SDS011;20865;43.312;27.152;2022-12-18T06:42:43;18.70;;;7.80;;
34657;SDS011;20865;43.312;27.152;2022-12-18T06:45:11;19.55;;;7.42;;
34657;SDS011;20865;43.312;27.152;2022-12-18T06:47:39;19.10;;;8.15;;
34657;SDS011;20865;43.312;27.152;2022-12-18T06:50:07;22.62;;;8.88;;
34657;SDS011;20865;43.312;27.152;2022-12-18T06:52:35;23.83;;;8.70;;
34657;SDS011;20865;43.312;27.152;2022-12-18T06:55:03;17.15;;;7.80;;
34657;SDS011;20865;43.312;27.152;2022-12-18T06:57:31;21.70;;;8.98;;
34657;SDS011;20865;43.312;27.152;2022-12-18T06:59:59;24.47;;;8.90;;
34657;SDS011;20865;43.312;27.152;2022-12-18T07:02:26;22.32;;;8.38;;
34657;SDS011;20865;43.312;27.152;2022-12-18T07:04:54;21.85;;;9.20;;
34657;SDS011;20865;43.312;27.152;2022-12-18T07:07:21;21.17;;;9.13;;
34657;SDS011;20865;43.312;27.152;2022-12-18T07:09:49;20.62;;;7.72;;
34657;SDS011;20865;43.312;27.152;2022-12-18T07:12:17;22.40;;;8.78;;
34657;SDS011;20865;43.312;27.152;2022-12-18T07:14:45;25.32;;;9.60;;
34657;SDS011;20865;43.312;27.152;2022-12-18T07:17:13;26.93;;;10.10;;
34657;SDS011;20865;43.312;27.152;2022-12-18T07:19:40;22.37;;;8.63;;
34657;SDS011;20865;43.312;27.152;2022-12-18T07:22:08;23.83;;;8.40;;
34657;SDS011;20865;43.312;27.152;2022-12-18T07:24:36;21.45;;;8.35;;
34657;SDS011;20865;43.312;27.152;2022-12-18T07:27:03;24.02;;;10.03;;
34657;SDS011;20865;43.312;27.152;2022-12-18T07:29:31;22.87;;;8.95;;
34657;SDS011;20865;43.312;27.152;2022-12-18T07:31:59;23.98;;;8.78;;
34657;SDS011;20865;43.312;27.152;2022-12-18T07:34:28;19.48;;;9.05;;
34657;SDS011;20865;43.312;27.152;2022-12-18T07:36:55;27.00;;;10.32;;
34657;SDS011;20865;43.312;27.152;2022-12-18T07:39:23;28.92;;;9.70;;
34657;SDS011;20865;43.312;27.152;2022-12-18T07:41:51;22.60;;;8.90;;
34657;SDS011;20865;43.312;27.152;2022-12-18T07:44:36;22.82;;;8.98;;
34657;SDS011;20865;43.312;27.152;2022-12-18T07:47:04;21.15;;;9.00;;
34657;SDS011;20865;43.312;27.152;2022-12-18T07:49:33;22.35;;;8.75;;
34657;SDS011;20865;43.312;27.152;2022-12-18T07:52:01;27.30;;;9.50;;
34657;SDS011;20865;43.312;27.152;2022-12-18T07:54:29;28.85;;;9.28;;
34657;SDS011;20865;43.312;27.152;2022-12-18T07:56:57;22.40;;;9.23;;
34657;SDS011;20865;43.312;27.152;2022-12-18T07:59:26;24.00;;;10.08;;
34657;SDS011;20865;43.312;27.152;2022-12-18T08:01:53;30.15;;;11.03;;
34657;SDS011;20865;43.312;27.152;2022-12-18T08:04:21;29.30;;;11.25;;
34657;SDS011;20865;43.312;27.152;2022-12-18T08:06:49;28.62;;;10.18;;
34657;SDS011;20865;43.312;27.152;2022-12-18T08:09:16;31.65;;;12.37;;
34657;SDS011;20865;43.312;27.152;2022-12-18T08:11:44;29.30;;;11.15;;
34657;SDS011;20865;43.312;27.152;2022-12-18T08:14:12;31.05;;;10.58;;
34657;SDS011;20865;43.312;27.152;2022-12-18T08:16:40;30.20;;;11.15;;
34657;SDS011;20865;43.312;27.152;2022-12-18T08:19:07;32.08;;;12.60;;
34657;SDS011;20865;43.312;27.152;2022-12-18T08:21:35;38.85;;;14.95;;
34657;SDS011;20865;43.312;27.152;2022-12-18T08:24:03;30.62;;;14.33;;
34657;SDS011;20865;43.312;27.152;2022-12-18T08:26:31;27.40;;;11.95;;
34657;SDS011;20865;43.312;27.152;2022-12-18T08:28:59;25.57;;;11.18;;
34657;SDS011;20865;43.312;27.152;2022-12-18T08:31:27;25.27;;;10.30;;
34657;SDS011;20865;43.312;27.152;2022-12-18T08:33:56;31.10;;;11.28;;
34657;SDS011;20865;43.312;27.152;2022-12-18T08:36:24;28.62;;;11.48;;
34657;SDS011;20865;43.312;27.152;2022-12-18T08:38:52;26.85;;;11.48;;
34657;SDS011;20865;43.312;27.152;2022-12-18T08:41:20;27.95;;;11.25;;
34657;SDS011;20865;43.312;27.152;2022-12-18T08:43:48;26.48;;;11.10;;
34657;SDS011;20865;43.312;27.152;2022-12-18T08:46:42;28.45;;;11.22;;
34657;SDS011;20865;43.312;27.152;2022-12-18T08:49:07;31.30;;;11.40;;
34657;SDS011;20865;43.312;27.152;2022-12-18T08:51:36;29.42;;;11.28;;
34657;SDS011;20865;43.312;27.152;2022-12-18T08:54:04;27.37;;;11.78;;
34657;SDS011;20865;43.312;27.152;2022-12-18T08:56:32;30.57;;;12.53;;
34657;SDS011;20865;43.312;27.152;2022-12-18T08:59:01;29.40;;;11.48;;
34657;SDS011;20865;43.312;27.152;2022-12-18T09:01:29;26.85;;;11.28;;
34657;SDS011;20865;43.312;27.152;2022-12-18T09:03:57;28.77;;;11.75;;
34657;SDS011;20865;43.312;27.152;2022-12-18T09:06:25;28.23;;;12.28;;
34657;SDS011;20865;43.312;27.152;2022-12-18T09:08:52;30.88;;;12.33;;
34657;SDS011;20865;43.312;27.152;2022-12-18T09:11:21;28.42;;;12.73;;
34657;SDS011;20865;43.312;27.152;2022-12-18T09:13:50;49.73;;;19.32;;
34657;SDS011;20865;43.312;27.152;2022-12-18T09:16:19;48.10;;;18.20;;
34657;SDS011;20865;43.312;27.152;2022-12-18T09:18:48;43.23;;;17.32;;
34657;SDS011;20865;43.312;27.152;2022-12-18T09:21:17;47.70;;;18.82;;
34657;SDS011;20865;43.312;27.152;2022-12-18T09:23:50;35.05;;;14.70;;
34657;SDS011;20865;43.312;27.152;2022-12-18T09:26:18;43.90;;;16.70;;
34657;SDS011;20865;43.312;27.152;2022-12-18T09:28:47;42.08;;;16.62;;
34657;SDS011;20865;43.312;27.152;2022-12-18T09:31:16;54.70;;;23.73;;
34657;SDS011;20865;43.312;27.152;2022-12-18T09:33:46;35.00;;;15.08;;
34657;SDS011;20865;43.312;27.152;2022-12-18T09:36:14;32.03;;;13.83;;
34657;SDS011;20865;43.312;27.152;2022-12-18T09:38:43;35.80;;;14.93;;
34657;SDS011;20865;43.312;27.152;2022-12-18T09:46:52;41.08;;;17.92;;
34657;SDS011;20865;43.312;27.152;2022-12-18T09:49:40;37.45;;;13.80;;
34657;SDS011;20865;43.312;27.152;2022-12-18T09:52:11;34.58;;;13.65;;
34657;SDS011;20865;43.312;27.152;2022-12-18T09:54:44;47.00;;;18.40;;
34657;SDS011;20865;43.312;27.152;2022-12-18T09:57:23;40.60;;;18.42;;
34657;SDS011;20865;43.312;27.152;2022-12-18T09:59:58;33.35;;;15.23;;
34657;SDS011;20865;43.312;27.152;2022-12-18T10:02:23;41.70;;;16.50;;
34657;SDS011;20865;43.312;27.152;2022-12-18T10:04:59;33.18;;;12.30;;
34657;SDS011;20865;43.312;27.152;2022-12-18T10:10:32;38.75;;;14.07;;
34657;SDS011;20865;43.312;27.152;2022-12-18T10:13:12;35.05;;;13.22;;
34657;SDS011;20865;43.312;27.152;2022-12-18T10:15:45;32.83;;;14.10;;
34657;SDS011;20865;43.312;27.152;2022-12-18T10:20:54;34.10;;;14.83;;
34657;SDS011;20865;43.312;27.152;2022-12-18T10:28:32;38.60;;;16.10;;
34657;SDS011;20865;43.312;27.152;2022-12-18T10:31:07;36.35;;;15.53;;
34657;SDS011;20865;43.312;27.152;2022-12-18T10:33:41;29.60;;;14.13;;
34657;SDS011;20865;43.312;27.152;2022-12-18T10:36:09;38.15;;;14.68;;
34657;SDS011;20865;43.312;27.152;2022-12-18T10:38:36;28.32;;;13.93;;
34657;SDS011;20865;43.312;27.152;2022-12-18T10:41:06;41.68;;;16.27;;
34657;SDS011;20865;43.312;27.152;2022-12-18T10:43:51;32.55;;;13.83;;
34657;SDS011;20865;43.312;27.152;2022-12-18T10:46:36;31.25;;;13.72;;
34657;SDS011;20865;43.312;27.152;2022-12-18T10:49:04;36.95;;;15.00;;
34657;SDS011;20865;43.312;27.152;2022-12-18T10:51:35;41.90;;;16.73;;
34657;SDS011;20865;43.312;27.152;2022-12-18T10:54:04;52.93;;;19.60;;
34657;SDS011;20865;43.312;27.152;2022-12-18T10:56:34;40.95;;;14.93;;
34657;SDS011;20865;43.312;27.152;2022-12-18T10:59:04;37.58;;;14.15;;
34657;SDS011;20865;43.312;27.152;2022-12-18T11:01:48;33.20;;;14.98;;
34657;SDS011;20865;43.312;27.152;2022-12-18T11:04:21;41.18;;;15.30;;
34657;SDS011;20865;43.312;27.152;2022-12-18T11:06:54;35.98;;;14.45;;
34657;SDS011;20865;43.312;27.152;2022-12-18T11:09:30;32.98;;;13.65;;
34657;SDS011;20865;43.312;27.152;2022-12-18T11:12:00;31.10;;;12.60;;
34657;SDS011;20865;43.312;27.152;2022-12-18T11:14:42;31.95;;;12.47;;
34657;SDS011;20865;43.312;27.152;2022-12-18T11:17:18;32.45;;;12.82;;
34657;SDS011;20865;43.312;27.152;2022-12-18T11:19:57;35.85;;;13.32;;
34657;SDS011;20865;43.312;27.152;2022-12-18T11:22:27;34.33;;;12.75;;
34657;SDS011;20865;43.312;27.152;2022-12-18T11:27:54;34.08;;;13.83;;
34657;SDS011;20865;43.312;27.152;2022-12-18T11:32:54;29.40;;;13.20;;
34657;SDS011;20865;43.312;27.152;2022-12-18T11:35:40;38.78;;;14.50;;
34657;SDS011;20865;43.312;27.152;2022-12-18T11:38:22;34.40;;;13.95;;
34657;SDS011;20865;43.312;27.152;2022-12-18T11:41:00;35.80;;;15.23;;
34657;SDS011;20865;43.312;27.152;2022-12-18T11:46:34;31.70;;;13.28;;
34657;SDS011;20865;43.312;27.152;2022-12-18T11:49:04;37.17;;;14.25;;
34657;SDS011;20865;43.312;27.152;2022-12-18T11:51:48;35.48;;;14.78;;
34657;SDS011;20865;43.312;27.152;2022-12-18T11:54:14;34.13;;;13.98;;
34657;SDS011;20865;43.312;27.152;2022-12-18T12:16:22;31.60;;;13.30;;
34657;SDS011;20865;43.312;27.152;2022-12-18T12:21:53;36.75;;;14.43;;
34657;SDS011;20865;43.312;27.152;2022-12-18T12:24:25;39.13;;;16.05;;
34657;SDS011;20865;43.312;27.152;2022-12-18T12:29:47;37.65;;;14.40;;
34657;SDS011;20865;43.312;27.152;2022-12-18T12:37:58;48.70;;;17.85;;
34657;SDS011;20865;43.312;27.152;2022-12-18T12:40:26;37.45;;;14.80;;
34657;SDS011;20865;43.312;27.152;2022-12-18T12:42:59;40.35;;;16.00;;
34657;SDS011;20865;43.312;27.152;2022-12-18T12:51:16;43.58;;;13.72;;
34657;SDS011;20865;43.312;27.152;2022-12-18T12:53:41;32.97;;;13.47;;
34657;SDS011;20865;43.312;27.152;2022-12-18T12:56:09;42.93;;;15.85;;
34657;SDS011;20865;43.312;27.152;2022-12-18T12:58:45;41.00;;;17.40;;
34657;SDS011;20865;43.312;27.152;2022-12-18T13:01:37;32.65;;;14.13;;
34657;SDS011;20865;43.312;27.152;2022-12-18T13:04:34;35.20;;;14.10;;
34657;SDS011;20865;43.312;27.152;2022-12-18T13:07:12;33.10;;;14.20;;
34657;SDS011;20865;43.312;27.152;2022-12-18T13:18:14;38.98;;;16.50;;
34657;SDS011;20865;43.312;27.152;2022-12-18T13:20:53;63.33;;;25.10;;
34657;SDS011;20865;43.312;27.152;2022-12-18T13:23:31;75.80;;;33.28;;
34657;SDS011;20865;43.312;27.152;2022-12-18T13:36:52;56.80;;;22.10;;
34657;SDS011;20865;43.312;27.152;2022-12-18T13:39:22;86.78;;;31.42;;
34657;SDS011;20865;43.312;27.152;2022-12-18T13:41:52;61.58;;;25.02;;
34657;SDS011;20865;43.312;27.152;2022-12-18T13:44:24;37.70;;;16.42;;
34657;SDS011;20865;43.312;27.152;2022-12-18T13:46:52;66.80;;;25.50;;
34657;SDS011;20865;43.312;27.152;2022-12-18T13:49:25;100.53;;;38.10;;
34657;SDS011;20865;43.312;27.152;2022-12-18T13:51:57;92.97;;;34.27;;
34657;SDS011;20865;43.312;27.152;2022-12-18T13:54:39;151.60;;;52.73;;
34657;SDS011;20865;43.312;27.152;2022-12-18T13:59:58;114.52;;;35.92;;
34657;SDS011;20865;43.312;27.152;2022-12-18T14:02:27;73.78;;;26.80;;
34657;SDS011;20865;43.312;27.152;2022-12-18T14:04:55;84.28;;;33.98;;
34657;SDS011;20865;43.312;27.152;2022-12-18T14:07:28;73.90;;;32.83;;
34657;SDS011;20865;43.312;27.152;2022-12-18T14:10:01;94.13;;;37.55;;
34657;SDS011;20865;43.312;27.152;2022-12-18T14:12:30;61.02;;;23.38;;
34657;SDS011;20865;43.312;27.152;2022-12-18T14:20:58;84.90;;;34.75;;
34657;SDS011;20865;43.312;27.152;2022-12-18T14:23:31;80.75;;;33.53;;
34657;SDS011;20865;43.312;27.152;2022-12-18T14:26:19;75.60;;;29.65;;
34657;SDS011;20865;43.312;27.152;2022-12-18T14:28:54;69.25;;;28.20;;
34657;SDS011;20865;43.312;27.152;2022-12-18T14:31:26;81.32;;;32.45;;
34657;SDS011;20865;43.312;27.152;2022-12-18T14:33:56;134.32;;;55.15;;
34657;SDS011;20865;43.312;27.152;2022-12-18T14:36:25;115.72;;;49.40;;
34657;SDS011;20865;43.312;27.152;2022-12-18T14:39:00;99.45;;;45.92;;
34657;SDS011;20865;43.312;27.152;2022-12-18T14:41:25;81.02;;;32.88;;
34657;SDS011;20865;43.312;27.152;2022-12-18T14:43:54;96.17;;;35.05;;
34657;SDS011;20865;43.312;27.152;2022-12-18T14:46:45;150.35;;;52.98;;
34657;SDS011;20865;43.312;27.152;2022-12-18T14:49:23;202.07;;;62.93;;
34657;SDS011;20865;43.312;27.152;2022-12-18T14:51:56;96.72;;;34.00;;
34657;SDS011;20865;43.312;27.152;2022-12-18T14:54:25;94.90;;;31.90;;
34657;SDS011;20865;43.312;27.152;2022-12-18T14:57:06;90.90;;;33.58;;
34657;SDS011;20865;43.312;27.152;2022-12-18T14:59:53;102.15;;;33.58;;
34657;SDS011;20865;43.312;27.152;2022-12-18T15:02:25;95.50;;;34.40;;
34657;SDS011;20865;43.312;27.152;2022-12-18T15:07:44;81.45;;;30.08;;
34657;SDS011;20865;43.312;27.152;2022-12-18T15:12:49;82.25;;;30.72;;
34657;SDS011;20865;43.312;27.152;2022-12-18T15:23:22;87.55;;;29.72;;
34657;SDS011;20865;43.312;27.152;2022-12-18T15:25:58;106.97;;;36.70;;
34657;SDS011;20865;43.312;27.152;2022-12-18T15:33:45;196.72;;;61.80;;
34657;SDS011;20865;43.312;27.152;2022-12-18T15:36:22;164.88;;;49.25;;
34657;SDS011;20865;43.312;27.152;2022-12-18T15:38:50;137.52;;;42.60;;
34657;SDS011;20865;43.312;27.152;2022-12-18T15:41:20;102.58;;;32.25;;
34657;SDS011;20865;43.312;27.152;2022-12-18T15:43:49;162.77;;;53.20;;
34657;SDS011;20865;43.312;27.152;2022-12-18T15:46:19;104.80;;;35.23;;
34657;SDS011;20865;43.312;27.152;2022-12-18T15:48:49;74.53;;;27.05;;
34657;SDS011;20865;43.312;27.152;2022-12-18T15:51:18;63.75;;;22.75;;
34657;SDS011;20865;43.312;27.152;2022-12-18T15:53:48;70.15;;;23.77;;
34657;SDS011;20865;43.312;27.152;2022-12-18T15:56:20;65.25;;;23.42;;
34657;SDS011;20865;43.312;27.152;2022-12-18T15:59:10;59.88;;;21.95;;
34657;SDS011;20865;43.312;27.152;2022-12-18T16:01:39;58.68;;;22.60;;
34657;SDS011;20865;43.312;27.152;2022-12-18T16:04:12;73.47;;;22.93;;
34657;SDS011;20865;43.312;27.152;2022-12-18T16:06:41;68.67;;;23.38;;
34657;SDS011;20865;43.312;27.152;2022-12-18T16:09:09;64.42;;;22.85;;
34657;SDS011;20865;43.312;27.152;2022-12-18T16:11:37;82.37;;;26.07;;
34657;SDS011;20865;43.312;27.152;2022-12-18T16:14:23;76.05;;;22.70;;
34657;SDS011;20865;43.312;27.152;2022-12-18T16:17:02;70.42;;;24.00;;
34657;SDS011;20865;43.312;27.152;2022-12-18T16:19:28;58.70;;;22.30;;
34657;SDS011;20865;43.312;27.152;2022-12-18T16:21:57;75.67;;;25.02;;
34657;SDS011;20865;43.312;27.152;2022-12-18T16:24:27;62.05;;;20.65;;
34657;SDS011;20865;43.312;27.152;2022-12-18T16:26:59;68.22;;;22.27;;
34657;SDS011;20865;43.312;27.152;2022-12-18T16:29:27;63.42;;;21.48;;
34657;SDS011;20865;43.312;27.152;2022-12-18T16:31:58;53.95;;;21.10;;
34657;SDS011;20865;43.312;27.152;2022-12-18T16:34:27;50.60;;;19.82;;
34657;SDS011;20865;43.312;27.152;2022-12-18T16:36:57;58.40;;;20.05;;
34657;SDS011;20865;43.312;27.152;2022-12-18T16:39:26;56.75;;;18.32;;
34657;SDS011;20865;43.312;27.152;2022-12-18T16:41:56;49.40;;;18.48;;
34657;SDS011;20865;43.312;27.152;2022-12-18T16:44:23;47.30;;;15.83;;
34657;SDS011;20865;43.312;27.152;2022-12-18T16:46:51;53.78;;;18.62;;
34657;SDS011;20865;43.312;27.152;2022-12-18T16:49:19;60.33;;;21.02;;
34657;SDS011;20865;43.312;27.152;2022-12-18T16:51:47;53.10;;;19.20;;